createdAt,value
2016-12-07T00:00:26.542Z,18.6
2016-12-07T00:01:26.523Z,18.51
2016-12-07T00:02:26.502Z,18.56
2016-12-07T00:03:26.690Z,18.59
2016-12-07T00:04:26.157Z,18.68
2016-12-07T00:05:26.452Z,18.57
2016-12-07T00:06:26.451Z,18.64
2016-12-07T00:07:26.118Z,18.65
2016-12-07T00:08:26.417Z,18.62
2016-12-07T00:09:26.082Z,18.6
2016-12-07T00:10:26.381Z,18.64
2016-12-07T00:11:25.733Z,18.66
2016-12-07T00:12:26.350Z,18.56
2016-12-07T00:13:26.040Z,18.69
2016-12-07T00:14:26.315Z,18.64
2016-12-07T00:15:26.304Z,18.57
2016-12-07T00:16:25.965Z,18.64
2016-12-07T00:17:26.264Z,18.66
2016-12-07T00:18:26.252Z,18.68
2016-12-07T00:19:25.913Z,18.57
2016-12-07T00:20:26.212Z,18.56
2016-12-07T00:21:25.876Z,18.66
2016-12-07T00:22:26.177Z,18.64
2016-12-07T00:23:26.160Z,18.59
2016-12-07T00:24:26.136Z,18.59
2016-12-07T00:25:25.827Z,18.59
2016-12-07T00:26:25.794Z,18.56
2016-12-07T00:27:26.094Z,18.57
2016-12-07T00:28:26.075Z,18.56
2016-12-07T00:29:26.059Z,18.56
2016-12-07T00:30:26.051Z,18.56
2016-12-07T00:31:26.028Z,18.54
2016-12-07T00:32:26.009Z,18.56
2016-12-07T00:33:25.676Z,18.49
2016-12-07T00:34:25.975Z,18.59
2016-12-07T00:35:25.644Z,18.54
2016-12-07T00:36:25.943Z,18.53
2016-12-07T00:37:25.920Z,18.54
2016-12-07T00:38:25.901Z,18.5
2016-12-07T00:39:25.882Z,18.53
2016-12-07T00:40:25.250Z,18.5
2016-12-07T00:41:25.855Z,18.57
2016-12-07T00:42:25.525Z,18.6
2016-12-07T00:43:25.813Z,18.51
2016-12-07T00:44:25.802Z,18.53
2016-12-07T00:45:25.789Z,18.59
2016-12-07T00:46:25.462Z,18.54
2016-12-07T00:47:25.119Z,18.51
2016-12-07T00:48:25.417Z,18.5
2016-12-07T00:49:25.715Z,18.53
2016-12-07T00:50:25.705Z,18.53
2016-12-07T00:51:25.683Z,18.53
2016-12-07T00:52:25.346Z,18.51
2016-12-07T00:53:25.647Z,18.56
2016-12-07T00:54:25.317Z,18.53
2016-12-07T00:55:25.611Z,18.5
2016-12-07T00:56:25.609Z,18.56
2016-12-07T00:57:25.579Z,18.54
2016-12-07T00:58:25.249Z,18.53
2016-12-07T00:59:25.550Z,18.5
2016-12-07T01:00:25.525Z,18.5
2016-12-07T01:01:25.513Z,18.46
2016-12-07T01:02:25.496Z,18.5
2016-12-07T01:03:25.169Z,18.53
2016-12-07T01:04:25.146Z,18.49
2016-12-07T01:05:25.444Z,18.51
2016-12-07T01:06:25.108Z,18.49
2016-12-07T01:07:25.414Z,18.51
2016-12-07T01:08:25.076Z,18.51
2016-12-07T01:09:25.390Z,18.53
2016-12-07T01:10:25.358Z,18.54
2016-12-07T01:11:25.390Z,18.51
2016-12-07T01:12:25.322Z,18.54
2016-12-07T01:13:24.993Z,18.44
2016-12-07T01:14:25.294Z,18.51
2016-12-07T01:15:24.954Z,18.42
2016-12-07T01:16:25.261Z,18.51
2016-12-07T01:17:25.240Z,18.56
2016-12-07T01:18:25.228Z,18.51
2016-12-07T01:19:25.207Z,18.38
2016-12-07T01:20:25.193Z,18.42
2016-12-07T01:21:25.188Z,18.49
2016-12-07T01:22:25.157Z,18.38
2016-12-07T01:23:25.135Z,18.39
2016-12-07T01:24:25.123Z,18.39
2016-12-07T01:25:24.476Z,18.38
2016-12-07T01:26:25.085Z,18.38
2016-12-07T01:27:25.066Z,18.42
2016-12-07T01:28:24.747Z,18.39
2016-12-07T01:29:25.036Z,18.41
2016-12-07T01:30:25.029Z,18.34
2016-12-07T01:31:24.997Z,18.34
2016-12-07T01:32:24.673Z,18.44
2016-12-07T01:33:24.968Z,18.46
2016-12-07T01:34:24.633Z,18.5
2016-12-07T01:35:24.618Z,18.38
2016-12-07T01:36:24.914Z,18.39
2016-12-07T01:37:24.902Z,18.46
2016-12-07T01:38:24.886Z,18.41
2016-12-07T01:39:24.865Z,18.34
2016-12-07T01:40:24.539Z,18.38
2016-12-07T01:41:24.825Z,18.41
2016-12-07T01:42:24.498Z,18.35
2016-12-07T01:43:24.797Z,18.36
2016-12-07T01:44:24.776Z,18.34
2016-12-07T01:45:24.450Z,18.36
2016-12-07T01:46:24.739Z,18.35
2016-12-07T01:47:24.727Z,18.35
2016-12-07T01:48:24.444Z,18.35
2016-12-07T01:49:24.415Z,18.32
2016-12-07T01:50:24.675Z,18.31
2016-12-07T01:51:24.662Z,18.35
2016-12-07T01:52:24.358Z,18.36
2016-12-07T01:53:24.623Z,18.36
2016-12-07T01:54:24.608Z,18.31
2016-12-07T01:55:24.587Z,18.31
2016-12-07T01:56:24.573Z,18.28
2016-12-07T01:57:24.554Z,18.44
2016-12-07T01:58:24.530Z,18.35
2016-12-07T01:59:24.521Z,18.34
2016-12-07T02:00:24.496Z,18.31
2016-12-07T02:01:24.510Z,18.34
2016-12-07T02:02:24.473Z,18.32
2016-12-07T02:03:24.446Z,18.31
2016-12-07T02:04:24.430Z,18.31
2016-12-07T02:05:24.411Z,18.23
2016-12-07T02:06:23.763Z,18.29
2016-12-07T02:07:24.377Z,18.34
2016-12-07T02:08:24.365Z,18.28
2016-12-07T02:09:24.338Z,18.28
2016-12-07T02:10:24.017Z,18.26
2016-12-07T02:11:24.308Z,18.29
2016-12-07T02:12:24.286Z,18.32
2016-12-07T02:13:24.276Z,18.29
2016-12-07T02:14:24.258Z,18.26
2016-12-07T02:15:23.917Z,18.23
2016-12-07T02:16:24.267Z,18.25
2016-12-07T02:17:24.200Z,18.16
2016-12-07T02:18:23.878Z,18.23
2016-12-07T02:19:24.163Z,18.23
2016-12-07T02:20:23.834Z,18.29
2016-12-07T02:21:23.823Z,18.21
2016-12-07T02:22:24.124Z,18.26
2016-12-07T02:23:23.781Z,18.29
2016-12-07T02:24:24.085Z,18.25
2016-12-07T02:25:24.066Z,18.25
2016-12-07T02:26:24.048Z,18.23
2016-12-07T02:27:23.710Z,18.26
2016-12-07T02:28:24.039Z,18.29
2016-12-07T02:29:23.990Z,18.29
2016-12-07T02:30:23.977Z,18.19
2016-12-07T02:31:23.957Z,18.23
2016-12-07T02:32:23.630Z,18.19
2016-12-07T02:33:23.927Z,18.13
2016-12-07T02:34:23.920Z,18.21
2016-12-07T02:35:23.889Z,18.19
2016-12-07T02:36:23.870Z,18.2
2016-12-07T02:37:23.861Z,18.16
2016-12-07T02:38:23.836Z,18.19
2016-12-07T02:39:23.818Z,18.16
2016-12-07T02:40:23.799Z,18.14
2016-12-07T02:41:23.784Z,18.14
2016-12-07T02:42:23.767Z,18.14
2016-12-07T02:43:23.435Z,18.17
2016-12-07T02:44:23.735Z,18.19
2016-12-07T02:45:23.718Z,18.16
2016-12-07T02:46:23.701Z,18.11
2016-12-07T02:47:23.686Z,18.11
2016-12-07T02:48:23.666Z,18.1
2016-12-07T02:49:23.650Z,18.13
2016-12-07T02:50:23.626Z,18.09
2016-12-07T02:51:23.610Z,18.16
2016-12-07T02:52:23.596Z,18.07
2016-12-07T02:53:23.580Z,18.09
2016-12-07T02:54:23.561Z,18.04
2016-12-07T02:55:23.544Z,18.07
2016-12-07T02:56:23.212Z,18.13
2016-12-07T02:57:23.202Z,18.1
2016-12-07T02:58:23.175Z,18.13
2016-12-07T02:59:23.474Z,18.09
2016-12-07T03:00:23.463Z,18.07
2016-12-07T03:01:23.125Z,18.11
2016-12-07T03:02:23.416Z,18.11
2016-12-07T03:03:23.093Z,18.1
2016-12-07T03:04:23.386Z,18.17
2016-12-07T03:05:23.369Z,18.09
2016-12-07T03:06:23.355Z,18.13
2016-12-07T03:07:23.334Z,18.02
2016-12-07T03:08:23.323Z,18.11
2016-12-07T03:09:23.298Z,18.1
2016-12-07T03:10:23.285Z,18.07
2016-12-07T03:11:23.270Z,18.04
2016-12-07T03:12:22.933Z,18.04
2016-12-07T03:13:22.918Z,18.01
2016-12-07T03:14:23.212Z,17.99
2016-12-07T03:15:23.191Z,18.1
2016-12-07T03:16:22.860Z,18.02
2016-12-07T03:17:22.847Z,18.09
2016-12-07T03:18:23.145Z,18.05
2016-12-07T03:19:23.124Z,18.04
2016-12-07T03:20:23.113Z,18.09
2016-12-07T03:21:23.094Z,18.02
2016-12-07T03:22:22.759Z,18.05
2016-12-07T03:23:23.064Z,18.02
2016-12-07T03:24:23.262Z,18.07
2016-12-07T03:25:23.026Z,18.09
2016-12-07T03:26:22.697Z,18.02
2016-12-07T03:27:22.991Z,18.01
2016-12-07T03:28:22.969Z,18.09
2016-12-07T03:29:22.641Z,18.04
2016-12-07T03:30:22.934Z,17.98
2016-12-07T03:31:22.921Z,18.1
2016-12-07T03:32:22.586Z,18.11
2016-12-07T03:33:22.570Z,18.09
2016-12-07T03:34:22.864Z,18.09
2016-12-07T03:35:22.884Z,18.19
2016-12-07T03:36:22.831Z,18.21
2016-12-07T03:37:22.817Z,18.23
2016-12-07T03:38:22.487Z,18.2
2016-12-07T03:39:22.154Z,18.17
2016-12-07T03:40:22.763Z,18.21
2016-12-07T03:41:22.111Z,18.19
2016-12-07T03:42:22.412Z,18.28
2016-12-07T03:43:22.709Z,18.25
2016-12-07T03:44:22.692Z,18.28
2016-12-07T03:45:22.359Z,18.28
2016-12-07T03:46:22.657Z,18.32
2016-12-07T03:47:22.333Z,18.44
2016-12-07T03:48:22.621Z,18.36
2016-12-07T03:49:22.610Z,18.35
2016-12-07T03:50:22.592Z,18.36
2016-12-07T03:51:22.568Z,18.56
2016-12-07T03:52:22.550Z,18.49
2016-12-07T03:53:22.534Z,18.51
2016-12-07T03:54:22.197Z,18.53
2016-12-07T03:55:22.501Z,18.53
2016-12-07T03:56:22.166Z,18.49
2016-12-07T03:57:22.463Z,18.49
2016-12-07T03:58:22.450Z,18.5
2016-12-07T03:59:22.430Z,18.56
2016-12-07T04:00:22.413Z,18.5
2016-12-07T04:01:22.398Z,18.51
2016-12-07T04:02:22.378Z,18.53
2016-12-07T04:03:22.365Z,18.5
2016-12-07T04:04:22.346Z,18.49
2016-12-07T04:05:22.013Z,18.54
2016-12-07T04:06:22.305Z,18.53
2016-12-07T04:07:21.980Z,18.5
2016-12-07T04:08:21.960Z,18.53
2016-12-07T04:09:22.254Z,18.49
2016-12-07T04:10:22.241Z,18.53
2016-12-07T04:11:21.906Z,18.5
2016-12-07T04:12:22.202Z,18.42
2016-12-07T04:13:21.875Z,18.47
2016-12-07T04:14:22.197Z,18.57
2016-12-07T04:15:22.159Z,18.49
2016-12-07T04:16:22.134Z,18.53
2016-12-07T04:17:22.126Z,18.53
2016-12-07T04:18:21.786Z,18.38
2016-12-07T04:19:22.086Z,18.44
2016-12-07T04:20:22.099Z,18.36
2016-12-07T04:21:22.051Z,18.41
2016-12-07T04:22:21.711Z,18.35
2016-12-07T04:23:22.010Z,18.35
2016-12-07T04:24:21.995Z,18.38
2016-12-07T04:25:21.978Z,18.5
2016-12-07T04:26:21.960Z,18.35
2016-12-07T04:27:21.949Z,18.38
2016-12-07T04:28:21.931Z,18.36
2016-12-07T04:29:21.590Z,18.38
2016-12-07T04:30:21.890Z,18.5
2016-12-07T04:31:21.558Z,18.41
2016-12-07T04:32:21.864Z,18.38
2016-12-07T04:33:21.522Z,18.34
2016-12-07T04:34:21.873Z,18.46
2016-12-07T04:35:21.490Z,18.34
2016-12-07T04:36:21.476Z,18.39
2016-12-07T04:37:21.774Z,18.32
2016-12-07T04:38:21.750Z,18.35
2016-12-07T04:39:21.741Z,18.31
2016-12-07T04:40:21.402Z,18.25
2016-12-07T04:41:21.383Z,18.35
2016-12-07T04:42:21.683Z,18.35
2016-12-07T04:43:21.666Z,18.38
2016-12-07T04:44:21.653Z,18.36
2016-12-07T04:45:21.631Z,18.35
2016-12-07T04:46:20.980Z,18.31
2016-12-07T04:47:21.597Z,18.35
2016-12-07T04:48:21.589Z,18.34
2016-12-07T04:49:21.563Z,18.34
2016-12-07T04:50:21.546Z,18.32
2016-12-07T04:51:21.534Z,18.31
2016-12-07T04:52:21.509Z,18.34
2016-12-07T04:53:21.502Z,18.36
2016-12-07T04:54:21.477Z,18.36
2016-12-07T04:55:20.847Z,18.38
2016-12-07T04:56:21.438Z,18.34
2016-12-07T04:57:21.425Z,18.36
2016-12-07T04:58:21.413Z,18.34
2016-12-07T04:59:21.081Z,18.34
2016-12-07T05:00:21.373Z,18.32
2016-12-07T05:01:21.360Z,18.35
2016-12-07T05:02:21.063Z,18.32
2016-12-07T05:03:21.325Z,18.21
2016-12-07T05:04:21.310Z,18.25
2016-12-07T05:05:20.973Z,18.31
2016-12-07T05:06:21.270Z,18.35
2016-12-07T05:07:21.255Z,18.38
2016-12-07T05:08:21.249Z,18.56
2016-12-07T05:09:21.216Z,18.56
2016-12-07T05:10:21.205Z,18.64
2016-12-07T05:11:21.204Z,18.72
2016-12-07T05:12:21.589Z,18.75
2016-12-07T05:13:21.171Z,18.94
2016-12-07T05:14:21.128Z,18.94
2016-12-07T05:15:20.799Z,19.09
2016-12-07T05:16:21.091Z,19.17
2016-12-07T05:17:21.074Z,19.17
2016-12-07T05:18:21.053Z,19.16
2016-12-07T05:19:21.042Z,19.28
2016-12-07T05:20:21.026Z,19.4
2016-12-07T05:21:21.007Z,19.45
2016-12-07T05:22:20.676Z,19.52
2016-12-07T05:23:20.655Z,19.61
2016-12-07T05:24:20.641Z,19.6
2016-12-07T05:25:20.628Z,19.67
2016-12-07T05:26:20.918Z,19.61
2016-12-07T05:27:21.131Z,19.75
2016-12-07T05:28:20.878Z,19.79
2016-12-07T05:29:20.873Z,19.79
2016-12-07T05:30:20.541Z,19.83
2016-12-07T05:31:20.842Z,19.8
2016-12-07T05:32:20.493Z,19.85
2016-12-07T05:33:20.480Z,19.85
2016-12-07T05:34:20.475Z,19.83
2016-12-07T05:35:20.763Z,19.83
2016-12-07T05:36:20.430Z,19.79
2016-12-07T05:37:20.419Z,19.9
2016-12-07T05:38:20.707Z,19.9
2016-12-07T05:39:20.694Z,19.87
2016-12-07T05:40:20.685Z,19.86
2016-12-07T05:41:20.662Z,19.82
2016-12-07T05:42:20.644Z,19.83
2016-12-07T05:43:20.629Z,19.79
2016-12-07T05:44:20.610Z,19.83
2016-12-07T05:45:20.591Z,19.82
2016-12-07T05:46:20.255Z,19.85
2016-12-07T05:47:20.560Z,19.82
2016-12-07T05:48:20.225Z,19.85
2016-12-07T05:49:20.204Z,19.83
2016-12-07T05:50:20.506Z,19.8
2016-12-07T05:51:20.489Z,19.8
2016-12-07T05:52:20.470Z,19.83
2016-12-07T05:53:20.485Z,19.8
2016-12-07T05:54:20.439Z,19.76
2016-12-07T05:55:20.422Z,19.67
2016-12-07T05:56:20.403Z,19.68
2016-12-07T05:57:20.393Z,19.62
2016-12-07T05:58:20.372Z,19.55
2016-12-07T05:59:20.041Z,19.55
2016-12-07T06:00:20.337Z,19.53
2016-12-07T06:01:20.319Z,19.57
2016-12-07T06:02:19.995Z,19.61
2016-12-07T06:03:20.282Z,19.68
2016-12-07T06:04:20.263Z,19.7
2016-12-07T06:05:20.259Z,19.78
2016-12-07T06:06:19.922Z,19.82
2016-12-07T06:07:20.219Z,19.85
2016-12-07T06:08:20.202Z,19.82
2016-12-07T06:09:20.187Z,19.92
2016-12-07T06:10:19.855Z,19.8
2016-12-07T06:11:20.154Z,19.86
2016-12-07T06:12:19.820Z,19.87
2016-12-07T06:13:20.127Z,19.86
2016-12-07T06:14:19.786Z,19.86
2016-12-07T06:15:20.083Z,19.87
2016-12-07T06:16:20.063Z,19.87
2016-12-07T06:17:19.732Z,19.92
2016-12-07T06:18:20.037Z,19.95
2016-12-07T06:19:20.018Z,20
2016-12-07T06:20:19.368Z,19.92
2016-12-07T06:21:19.981Z,19.95
2016-12-07T06:22:19.971Z,19.97
2016-12-07T06:23:19.634Z,20.05
2016-12-07T06:24:19.935Z,20.13
2016-12-07T06:25:19.914Z,20.08
2016-12-07T06:26:19.581Z,20.07
2016-12-07T06:27:19.567Z,20.15
2016-12-07T06:28:19.551Z,20.08
2016-12-07T06:29:19.531Z,20.16
2016-12-07T06:30:19.837Z,20.2
2016-12-07T06:31:19.811Z,20.1
2016-12-07T06:32:19.481Z,20.13
2016-12-07T06:33:19.784Z,20.16
2016-12-07T06:34:19.764Z,20.12
2016-12-07T06:35:19.749Z,20.16
2016-12-07T06:36:19.736Z,20.2
2016-12-07T06:37:19.712Z,20.22
2016-12-07T06:38:19.697Z,20.22
2016-12-07T06:39:19.678Z,20.17
2016-12-07T06:40:19.668Z,20.22
2016-12-07T06:41:19.010Z,20.22
2016-12-07T06:42:19.630Z,20.22
2016-12-07T06:43:19.616Z,20.2
2016-12-07T06:44:19.595Z,20.17
2016-12-07T06:45:19.582Z,20.31
2016-12-07T06:46:19.617Z,20.17
2016-12-07T06:47:19.230Z,20.19
2016-12-07T06:48:19.221Z,20.2
2016-12-07T06:49:19.519Z,20.2
2016-12-07T06:50:19.180Z,20.23
2016-12-07T06:51:19.485Z,20.2
2016-12-07T06:52:19.463Z,20.25
2016-12-07T06:53:19.358Z,20.19
2016-12-07T06:54:19.115Z,20.19
2016-12-07T06:55:19.412Z,20.19
2016-12-07T06:56:19.079Z,20.2
2016-12-07T06:57:19.070Z,20.23
2016-12-07T06:58:19.372Z,20.22
2016-12-07T06:59:19.347Z,20.2
2016-12-07T07:00:19.330Z,20.22
2016-12-07T07:01:19.004Z,20.27
2016-12-07T07:02:19.297Z,20.25
2016-12-07T07:03:19.280Z,20.27
2016-12-07T07:04:18.947Z,20.27
2016-12-07T07:05:19.249Z,20.31
2016-12-07T07:06:19.232Z,20.23
2016-12-07T07:07:18.581Z,20.33
2016-12-07T07:08:19.196Z,20.26
2016-12-07T07:09:19.019Z,20.34
2016-12-07T07:10:19.181Z,20.35
2016-12-07T07:11:19.146Z,20.35
2016-12-07T07:12:18.820Z,20.3
2016-12-07T07:13:19.117Z,20.34
2016-12-07T07:14:19.101Z,20.33
2016-12-07T07:15:19.081Z,20.37
2016-12-07T07:16:19.102Z,20.34
2016-12-07T07:17:18.736Z,20.4
2016-12-07T07:18:18.717Z,20.33
2016-12-07T07:19:19.020Z,20.33
2016-12-07T07:20:19.006Z,20.33
2016-12-07T07:21:18.670Z,20.34
2016-12-07T07:22:18.967Z,20.3
2016-12-07T07:23:18.951Z,20.34
2016-12-07T07:24:18.622Z,20.38
2016-12-07T07:25:18.924Z,20.44
2016-12-07T07:26:18.905Z,20.4
2016-12-07T07:27:18.566Z,20.38
2016-12-07T07:28:18.547Z,20.37
2016-12-07T07:29:18.850Z,20.4
2016-12-07T07:30:18.833Z,20.35
2016-12-07T07:31:18.821Z,20.46
2016-12-07T07:32:18.494Z,20.46
2016-12-07T07:33:18.471Z,20.4
2016-12-07T07:34:18.772Z,20.46
2016-12-07T07:35:18.751Z,20.44
2016-12-07T07:36:18.743Z,20.5
2016-12-07T07:37:18.722Z,20.5
2016-12-07T07:38:18.705Z,20.54
2016-12-07T07:39:18.686Z,20.48
2016-12-07T07:40:18.359Z,20.51
2016-12-07T07:41:18.659Z,20.51
2016-12-07T07:42:18.323Z,20.51
2016-12-07T07:43:18.623Z,20.53
2016-12-07T07:44:18.290Z,20.44
2016-12-07T07:45:18.646Z,20.5
2016-12-07T07:46:17.941Z,20.5
2016-12-07T07:47:18.556Z,20.46
2016-12-07T07:48:18.545Z,20.5
2016-12-07T07:49:18.523Z,20.57
2016-12-07T07:50:18.193Z,20.54
2016-12-07T07:51:18.493Z,20.61
2016-12-07T07:52:18.476Z,20.64
2016-12-07T07:53:18.487Z,20.66
2016-12-07T07:54:18.128Z,20.69
2016-12-07T07:55:18.428Z,20.68
2016-12-07T07:56:18.092Z,20.69
2016-12-07T07:57:18.404Z,20.75
2016-12-07T07:58:18.387Z,20.66
2016-12-07T07:59:18.364Z,20.63
2016-12-07T08:00:18.400Z,20.61
2016-12-07T08:01:18.013Z,20.69
2016-12-07T08:02:18.312Z,20.75
2016-12-07T08:03:18.299Z,20.75
2016-12-07T08:04:18.314Z,20.72
2016-12-07T08:05:17.954Z,20.69
2016-12-07T08:06:18.249Z,20.76
2016-12-07T08:07:18.236Z,20.71
2016-12-07T08:08:18.213Z,20.75
2016-12-07T08:09:18.204Z,20.63
2016-12-07T08:10:18.194Z,20.78
2016-12-07T08:11:18.169Z,20.64
2016-12-07T08:12:17.839Z,20.66
2016-12-07T08:13:17.822Z,20.69
2016-12-07T08:14:18.114Z,20.75
2016-12-07T08:15:18.098Z,20.72
2016-12-07T08:16:18.087Z,20.66
2016-12-07T08:17:18.070Z,20.63
2016-12-07T08:18:18.050Z,20.63
2016-12-07T08:19:18.033Z,20.71
2016-12-07T08:20:18.061Z,20.66
2016-12-07T08:21:18.005Z,20.64
2016-12-07T08:22:18.025Z,20.64
2016-12-07T08:23:17.973Z,20.73
2016-12-07T08:24:17.953Z,20.64
2016-12-07T08:25:17.940Z,20.71
2016-12-07T08:26:17.923Z,20.73
2016-12-07T08:27:18.171Z,20.72
2016-12-07T08:28:17.890Z,20.73
2016-12-07T08:29:18.155Z,20.75
2016-12-07T08:30:17.552Z,20.79
2016-12-07T08:31:18.065Z,20.64
2016-12-07T08:32:17.850Z,20.72
2016-12-07T08:33:17.819Z,20.73
2016-12-07T08:34:17.795Z,20.73
2016-12-07T08:35:17.458Z,20.78
2016-12-07T08:36:17.765Z,20.76
2016-12-07T08:37:17.743Z,20.79
2016-12-07T08:38:17.728Z,20.72
2016-12-07T08:39:17.712Z,20.76
2016-12-07T08:40:17.702Z,20.78
2016-12-07T08:41:17.681Z,20.71
2016-12-07T08:42:17.668Z,20.75
2016-12-07T08:43:17.649Z,20.75
2016-12-07T08:44:17.319Z,20.75
2016-12-07T08:45:17.308Z,20.73
2016-12-07T08:46:17.285Z,20.79
2016-12-07T08:47:17.263Z,20.78
2016-12-07T08:48:17.254Z,20.75
2016-12-07T08:49:17.549Z,20.75
2016-12-07T08:50:17.536Z,20.73
2016-12-07T08:51:17.523Z,20.79
2016-12-07T08:52:17.505Z,20.75
2016-12-07T08:53:17.174Z,20.82
2016-12-07T08:54:17.469Z,20.76
2016-12-07T08:55:17.152Z,20.78
2016-12-07T08:56:17.437Z,20.83
2016-12-07T08:57:17.439Z,20.79
2016-12-07T08:58:17.408Z,20.81
2016-12-07T08:59:17.397Z,20.83
2016-12-07T09:00:17.384Z,20.82
2016-12-07T09:01:17.356Z,20.87
2016-12-07T09:02:17.346Z,20.83
2016-12-07T09:03:17.012Z,20.96
2016-12-07T09:04:16.993Z,20.93
2016-12-07T09:05:17.302Z,20.85
2016-12-07T09:06:17.279Z,20.81
2016-12-07T09:07:17.260Z,20.85
2016-12-07T09:08:17.249Z,20.87
2016-12-07T09:09:17.229Z,20.9
2016-12-07T09:10:16.580Z,20.87
2016-12-07T09:11:17.194Z,20.83
2016-12-07T09:12:16.863Z,20.85
2016-12-07T09:13:17.160Z,20.88
2016-12-07T09:14:16.833Z,20.85
2016-12-07T09:15:17.136Z,20.87
2016-12-07T09:16:16.805Z,20.93
2016-12-07T09:17:17.102Z,20.9
2016-12-07T09:18:17.082Z,20.9
2016-12-07T09:19:16.437Z,20.81
2016-12-07T09:20:17.052Z,20.83
2016-12-07T09:21:16.719Z,20.87
2016-12-07T09:22:16.396Z,20.83
2016-12-07T09:23:17.004Z,20.81
2016-12-07T09:24:16.671Z,20.82
2016-12-07T09:25:16.970Z,20.79
2016-12-07T09:26:16.957Z,20.76
2016-12-07T09:27:16.941Z,20.75
2016-12-07T09:28:16.926Z,20.76
2016-12-07T09:29:16.591Z,20.82
2016-12-07T09:30:16.895Z,20.82
2016-12-07T09:31:17.107Z,20.81
2016-12-07T09:32:16.868Z,20.85
2016-12-07T09:33:16.531Z,20.82
2016-12-07T09:34:16.511Z,20.83
2016-12-07T09:35:16.817Z,20.79
2016-12-07T09:36:16.798Z,20.75
2016-12-07T09:37:16.467Z,20.76
2016-12-07T09:38:16.451Z,20.75
2016-12-07T09:39:16.437Z,20.88
2016-12-07T09:40:16.422Z,20.85
2016-12-07T09:41:16.721Z,20.78
2016-12-07T09:42:16.457Z,20.75
2016-12-07T09:43:16.375Z,20.69
2016-12-07T09:44:16.667Z,20.76
2016-12-07T09:45:16.668Z,20.66
2016-12-07T09:46:16.658Z,20.71
2016-12-07T09:47:16.632Z,20.69
2016-12-07T09:48:16.600Z,20.64
2016-12-07T09:49:16.281Z,20.82
2016-12-07T09:50:16.262Z,20.76
2016-12-07T09:51:16.243Z,20.72
2016-12-07T09:52:16.223Z,20.76
2016-12-07T09:53:16.206Z,20.75
2016-12-07T09:54:16.506Z,20.76
2016-12-07T09:55:16.732Z,20.69
2016-12-07T09:56:16.477Z,19.01
2016-12-07T09:57:16.457Z,17.55
2016-12-07T09:58:16.444Z,16.87
2016-12-07T09:59:16.119Z,16.52
2016-12-07T10:00:16.416Z,17.25
2016-12-07T10:01:16.398Z,18.04
2016-12-07T10:02:16.377Z,18.78
2016-12-07T10:03:16.360Z,19.13
2016-12-07T10:04:16.351Z,19.43
2016-12-07T10:05:16.542Z,19.67
2016-12-07T10:06:16.547Z,19.86
2016-12-07T10:07:16.502Z,20.04
2016-12-07T10:08:16.278Z,20.1
2016-12-07T10:09:16.265Z,20.15
2016-12-07T10:10:16.247Z,20.19
2016-12-07T10:11:16.481Z,20.26
2016-12-07T10:12:16.112Z,20.33
2016-12-07T10:13:15.884Z,20.33
2016-12-07T10:14:16.185Z,20.42
2016-12-07T10:15:16.170Z,20.41
2016-12-07T10:16:16.153Z,20.46
2016-12-07T10:17:16.133Z,20.44
2016-12-07T10:18:16.122Z,20.51
2016-12-07T10:19:16.103Z,20.53
2016-12-07T10:20:15.456Z,20.54
2016-12-07T10:21:16.075Z,20.56
2016-12-07T10:22:15.739Z,20.51
2016-12-07T10:23:16.036Z,20.48
2016-12-07T10:24:16.023Z,20.57
2016-12-07T10:25:16.008Z,20.61
2016-12-07T10:26:15.721Z,20.58
2016-12-07T10:27:15.970Z,20.57
2016-12-07T10:28:15.954Z,20.58
2016-12-07T10:29:15.937Z,20.6
2016-12-07T10:30:15.610Z,20.56
2016-12-07T10:31:15.900Z,20.6
2016-12-07T10:32:15.895Z,20.6
2016-12-07T10:33:15.563Z,20.58
2016-12-07T10:34:15.223Z,20.64
2016-12-07T10:35:15.844Z,20.64
2016-12-07T10:36:15.825Z,20.61
2016-12-07T10:37:15.494Z,20.69
2016-12-07T10:38:15.474Z,20.61
2016-12-07T10:39:15.460Z,20.64
2016-12-07T10:40:15.767Z,20.64
2016-12-07T10:41:15.427Z,20.63
2016-12-07T10:42:15.730Z,20.66
2016-12-07T10:43:15.710Z,20.64
2016-12-07T10:44:15.375Z,20.66
2016-12-07T10:45:15.048Z,20.69
2016-12-07T10:46:15.669Z,20.66
2016-12-07T10:47:15.331Z,20.64
2016-12-07T10:48:15.631Z,20.61
2016-12-07T10:49:15.295Z,20.73
2016-12-07T10:50:15.284Z,20.71
2016-12-07T10:51:15.267Z,20.63
2016-12-07T10:52:15.250Z,20.72
2016-12-07T10:53:15.549Z,20.63
2016-12-07T10:54:15.533Z,20.75
2016-12-07T10:55:15.524Z,20.76
2016-12-07T10:56:15.191Z,20.71
2016-12-07T10:57:15.500Z,20.68
2016-12-07T10:58:15.166Z,20.78
2016-12-07T10:59:15.137Z,20.76
2016-12-07T11:00:15.118Z,20.66
2016-12-07T11:01:15.423Z,20.72
2016-12-07T11:02:15.087Z,20.75
2016-12-07T11:03:15.388Z,20.76
2016-12-07T11:04:15.058Z,20.76
2016-12-07T11:05:15.359Z,20.73
2016-12-07T11:06:15.343Z,20.76
2016-12-07T11:07:14.708Z,20.75
2016-12-07T11:08:15.314Z,20.75
2016-12-07T11:09:15.289Z,20.71
2016-12-07T11:10:15.277Z,20.76
2016-12-07T11:11:15.261Z,20.72
2016-12-07T11:12:14.926Z,20.73
2016-12-07T11:13:15.232Z,20.82
2016-12-07T11:14:15.514Z,20.73
2016-12-07T11:15:15.283Z,20.76
2016-12-07T11:16:15.206Z,20.82
2016-12-07T11:17:14.931Z,20.79
2016-12-07T11:18:14.863Z,20.83
2016-12-07T11:19:15.153Z,20.87
2016-12-07T11:20:15.164Z,20.85
2016-12-07T11:21:14.522Z,20.83
2016-12-07T11:22:14.766Z,20.9
2016-12-07T11:23:14.751Z,20.81
2016-12-07T11:24:15.054Z,20.81
2016-12-07T11:25:14.731Z,20.72
2016-12-07T11:26:14.709Z,20.82
2016-12-07T11:27:15.004Z,20.9
2016-12-07T11:28:15.023Z,20.87
2016-12-07T11:29:14.660Z,20.85
2016-12-07T11:30:14.956Z,20.83
2016-12-07T11:31:14.619Z,20.85
2016-12-07T11:32:14.608Z,20.88
2016-12-07T11:33:14.949Z,20.87
2016-12-07T11:34:14.889Z,20.81
2016-12-07T11:35:14.555Z,20.85
2016-12-07T11:36:14.861Z,20.85
2016-12-07T11:37:14.838Z,20.85
2016-12-07T11:38:14.825Z,20.81
2016-12-07T11:39:14.807Z,20.78
2016-12-07T11:40:14.484Z,20.81
2016-12-07T11:41:14.781Z,20.82
2016-12-07T11:42:14.129Z,20.88
2016-12-07T11:43:14.749Z,20.83
2016-12-07T11:44:14.727Z,20.85
2016-12-07T11:45:14.709Z,20.87
2016-12-07T11:46:14.699Z,20.68
2016-12-07T11:47:14.363Z,20.72
2016-12-07T11:48:14.663Z,20.73
2016-12-07T11:49:14.645Z,20.75
2016-12-07T11:50:14.633Z,20.73
2016-12-07T11:51:14.660Z,20.75
2016-12-07T11:52:14.600Z,20.75
2016-12-07T11:53:14.587Z,20.76
2016-12-07T11:54:14.252Z,20.81
2016-12-07T11:55:14.546Z,20.73
2016-12-07T11:56:14.235Z,20.61
2016-12-07T11:57:14.520Z,20.33
2016-12-07T11:58:14.183Z,20.16
2016-12-07T11:59:14.486Z,20.25
2016-12-07T12:00:14.153Z,20.3
2016-12-07T12:01:14.458Z,20.46
2016-12-07T12:02:14.125Z,20.61
2016-12-07T12:03:14.423Z,20.63
2016-12-07T12:04:14.417Z,20.78
2016-12-07T12:05:14.392Z,20.72
2016-12-07T12:06:14.062Z,20.73
2016-12-07T12:07:14.360Z,20.72
2016-12-07T12:08:14.027Z,20.69
2016-12-07T12:09:13.696Z,20.71
2016-12-07T12:10:14.313Z,20.76
2016-12-07T12:11:14.308Z,20.75
2016-12-07T12:12:13.965Z,20.79
2016-12-07T12:13:14.267Z,20.69
2016-12-07T12:14:13.950Z,20.79
2016-12-07T12:15:14.231Z,20.9
2016-12-07T12:16:13.902Z,20.9
2016-12-07T12:17:14.199Z,20.85
2016-12-07T12:18:14.186Z,20.85
2016-12-07T12:19:13.536Z,20.83
2016-12-07T12:20:14.147Z,20.87
2016-12-07T12:21:14.138Z,20.82
2016-12-07T12:22:14.125Z,20.94
2016-12-07T12:23:14.107Z,20.85
2016-12-07T12:24:14.088Z,20.94
2016-12-07T12:25:14.074Z,20.93
2016-12-07T12:26:13.737Z,20.82
2016-12-07T12:27:14.038Z,20.87
2016-12-07T12:28:14.025Z,20.9
2016-12-07T12:29:14.052Z,20.81
2016-12-07T12:30:13.992Z,20.88
2016-12-07T12:31:13.682Z,20.88
2016-12-07T12:32:13.962Z,20.96
2016-12-07T12:33:13.941Z,20.93
2016-12-07T12:34:13.610Z,20.96
2016-12-07T12:35:13.594Z,20.87
2016-12-07T12:36:13.891Z,20.94
2016-12-07T12:37:13.562Z,20.97
2016-12-07T12:38:13.866Z,20.85
2016-12-07T12:39:13.851Z,20.96
2016-12-07T12:40:13.834Z,20.83
2016-12-07T12:41:13.823Z,20.85
2016-12-07T12:42:13.800Z,20.9
2016-12-07T12:43:13.786Z,20.96
2016-12-07T12:44:13.451Z,20.94
2016-12-07T12:45:13.754Z,21.01
2016-12-07T12:46:13.733Z,20.91
2016-12-07T12:47:13.724Z,20.87
2016-12-07T12:48:13.704Z,21.03
2016-12-07T12:49:13.369Z,20.91
2016-12-07T12:50:13.702Z,20.91
2016-12-07T12:51:13.339Z,20.85
2016-12-07T12:52:13.318Z,20.85
2016-12-07T12:53:13.620Z,20.85
2016-12-07T12:54:13.605Z,20.88
2016-12-07T12:55:13.595Z,20.87